Tiempo atmosférico en la estación meteorológica de Ávila, Ávila (1130 m.)



Fecha
DESCASC
Temp. máxima en grados centígrados (hora)
DESCASC
Temp. mínima en grados centígrados (hora)
DESCASC
Temp. media en grados centígrados
DESCASC
Racha de viento máxima en m/sg (hora)
DESCASC
Velocidad máxima media en intervalos de 10 minutos(hora)
DESCASC
Precipitaciones diarias en mm
DESCASC
Precipitaciones de 00:00 a 06:00 en mm
DESCASC
Precipitaciones de 06:00 a 12:00 en mm
DESCASC
Precipitaciones de 12:00 a 18:00 en mm
DESCASC
Precipitaciones de 18:00 a 24:00 en mm
DESCASC
05-04-2020 15.8 (17:10) 6.4 (07:30) 11.1 12.5 (13:10) 6.39 (14:10) 0.4 0 0 0 0.4
04-04-2020 14.1 (17:40) 4 (05:20) 9.1 14.44 (14:00) 7.5 (14:40) 0 0 0 0 0
03-04-2020 13.5 (19:00) 0.3 (07:20) 6.9 6.94 (15:50) 3.06 (14:00) 0 0 0 0 0
02-04-2020 9.5 (15:20) 0.1 (00:00) 4.8 9.44 (14:10) 5.56 (20:00) 1.8 0 0 1.2 0.6
01-04-2020 11 (17:00) 3.4 (00:00) 7.2 9.44 (16:30) 5.28 (15:30) 0 0 0 0 0
31-03-2020 7.7 (18:10) -1.3 (-00:0) 3.2 11.39 (13:00) 6.94 (11:10) 6 0 0.6 0 5.4
30-03-2020 7 (00:00) -1 (-00:0) 3 8.61 (05:40) 5.83 (05:40) 2 0 0 0.8 1.2
29-03-2020 15.2 (16:50) 0.8 (00:00) 8 8.89 (23:00) 5 (23:20) 0 0 0 0 0
28-03-2020 13.2 (16:10) -1.1 (-00:0) 6 8.33 (14:20) 3.89 (12:50) 0 0 0 0 0
27-03-2020 9.1 (14:40) -0.3 (00:00) 4.4 10 (16:10) 5.28 (14:50) 0 0 0 0 0
26-03-2020 11 (15:10) 0.4 (00:00) 5.7 10.56 (14:10) 6.67 (14:10) 0 0 0 0 0
25-03-2020 14.4 (16:30) 2.4 (00:00) 8.4 10.56 (16:10) 6.39 (16:20) 0 0 0 0 0
24-03-2020 13.4 (17:10) 4.9 (00:00) 9.1 10 (13:50) 5.56 (12:10) 0 0 0 0 0
23-03-2020 12 (15:40) 4.8 (00:00) 8.4 11.67 (18:20) 5.83 (18:20) 0.4 0 0 0 0.4
22-03-2020 9.3 (15:50) 3.7 (05:00) 6.5 6.67 (13:50) 3.89 (13:50) 0.2 0 0 0 0.2
21-03-2020 7.8 (16:40) 4.2 (00:00) 6 12.5 (02:20) 6.94 (10:40) 0.6 0.2 0.2 0.2 0
20-03-2020 8.4 (15:10) 5.9 (00:00) 7.1 13.06 (11:00) 7.78 (10:00) 0 0 0 0 0
19-03-2020 11.3 (16:10) 6.7 (00:00) 9 10 (19:20) 4.72 (21:20) 0 0 0 0 0
18-03-2020 14.9 (15:40) 5.2 (00:00) 10 10 (13:30) 6.11 (13:30) 0 0 0 0 0
17-03-2020 12.5 (16:00) 0.7 (00:00) 6.6 11.67 (15:40) 5.56 (14:50) 0.2 0 0.2 0 0
16-03-2020 3.6 (00:30) -0.9 (-00:0) 1.3 10.28 (08:10) 6.67 (08:30) 17.8 0.2 5 9.4 3.2
15-03-2020 18.9 (14:20) 3.4 (00:00) 11.1 12.22 (18:30) 6.67 (22:50) 0 0 0 0 0
14-03-2020 17.8 (16:40) 2.6 (00:00) 10.2 6.11 (13:30) 3.89 (13:20) 0 0 0 0 0
13-03-2020 14.7 (17:20) 5.5 (06:50) 10.1 7.5 (15:00) 4.72 (17:10) 0 0 0 0 0
12-03-2020 22.6 (15:50) 10 (00:00) 16.3 9.44 (15:30) 5.28 (15:30) 0 0 0 0 0
11-03-2020 23.9 (15:40) 4.8 (00:00) 14.3 6.94 (16:30) 3.89 (16:40) 0 0 0 0 0
10-03-2020 22.1 (15:30) 2.8 (00:00) 12.5 7.78 (15:10) 4.72 (15:50) 0 0 0 0 0
09-03-2020 12.7 (16:10) 2.6 (00:00) 7.6 11.11 (15:30) 6.39 (15:30) 0 0 0 0 0

Gráficas

Temp. máximas Temp. mínimas Temp. medias Precipitaciones Rachas de viento máximas Velocidades máximas media en intervalos de 10 minutos

Datos horarios

Fecha y hora oficial Temperatura (ºC) Velocidad del viento (km/h) Dirección del viento Racha (km/h) Dirección de racha Precipitación (mm) Presión (hPa) Tendencia (hPa) Humedad (%)
2020-04-07 23:00:00 11.7 6 Sudeste 14 Sudeste 0 895.4 1.5 88
2020-04-07 22:00:00 12.2 9 Sudeste 18 Sudeste 0.6 894.9 1.4 87
2020-04-07 21:00:00 13.1 3 Sudeste 22 Sur 1 894.3 1 81
2020-04-07 20:00:00 13.9 7 Sur 21 Sudeste 0 893.9 0.7 73
2020-04-07 19:00:00 14.6 10 Sudeste 26 Sudeste 0 893.5 -0.1 73
2020-04-07 18:00:00 14.9 12 Sudeste 29 Sudeste 0.2 893.3 -0.6 75
2020-04-07 17:00:00 16.5 15 Sudeste 30 Sur 0 893.2 -1.2 64
2020-04-07 16:00:00 15.4 15 Sudeste 33 Sudeste 0 893.6 -0.9 69
2020-04-07 15:00:00 13.6 17 Sudeste 29 Sudeste 0 893.9 -0.5 80
2020-04-07 14:00:00 13.2 12 Sudeste 28 Sur 0 894.4 0.1 84
2020-04-07 13:00:00 13.7 17 Sudeste 30 Sur 0 894.5 0.6 73
2020-04-07 12:00:00 13.3 16 Sudeste 33 Sudeste 0 894.4 0.7 75
2020-04-07 11:00:00 11.7 16 Sudeste 29 Sudeste 0 894.3 1 79
2020-04-07 10:00:00 10.6 14 Sudeste 25 Sudeste 0 893.9 0.9 85
2020-04-07 09:00:00 9.7 9 Sudeste 20 Sudeste 0 893.7 0.8 86
2020-04-07 08:00:00 8.8 9 Sudeste 19 Sudeste 0 893.3 0.5 88
2020-04-07 07:00:00 8.6 9 Sudeste 15 Sur 0 893 -0.3 86
2020-04-07 06:00:00 9.2 5 Sudeste 14 Sur 0 892.9 -0.5 84
2020-04-07 05:00:00 9.5 9 Sudeste 15 Sudeste 0 892.8 -0.6 82
2020-04-07 04:00:00 9.7 8 Sudeste 17 Sudeste 0 893.3 0 82
2020-04-07 03:00:00 9.5 9 Sudeste 19 Sudeste 0 893.4 -0.1 83
2020-04-07 02:00:00 9.7 7 Sudeste 16 Sudeste 0 893.4 -0.1 80
2020-04-07 01:00:00 10.4 8 Sudeste 15 Sudeste 0 893.3 0.2 78
2020-04-07 00:00:00 10.9 4 Sudoeste 10 Sudoeste 0 893.5 1.1 76
2020-04-06 23:00:00 11.2 7 Sur 20 Sur 0 893.5 1.3 71
2020-04-06 22:00:00 11.2 8 Sudeste 17 Sur 0 893.1 1.2 77
2020-04-06 21:00:00 11.4 8 Sudeste 17 Sur 0 892.4 0.2 75
2020-04-06 20:00:00 12.1 8 Sudeste 22 Sur 0 892.2 0.2 72
2020-04-06 19:00:00 12.3 5 Este 9 Sudoeste 0.2 891.9 -0.2 66
2020-04-06 18:00:00 11.8 8 Sudoeste 28 Sur 0.2 892.2 0.2 67
2020-04-06 17:00:00 14.1 12 Sudoeste 25 Sur 0 892 0 49
2020-04-06 16:00:00 14.4 9 Sur 23 Sur 0 892.1 0.4 55
2020-04-06 15:00:00 15.3 10 Sur 30 Sur 0 892 0.5 54
2020-04-06 14:00:00 16 13 Sur 25 Sur 0 892 0.7 51
2020-04-06 13:00:00 14.5 7 Este 23 Sur 0 891.7 1 59
2020-04-06 12:00:00 13.4 10 Sur 20 Sur 0 891.5 1.7 63
2020-04-06 11:00:00 11.8 7 Sur 17 Oeste 0 891.3 2.3 71
2020-04-06 10:00:00 11.8 4 Oeste 17 Sur 0 890.7 1.9 69
2020-04-06 09:00:00 9.8 9 Sudeste 15 Sudeste 0 889.8 1.3 83
2020-04-06 08:00:00 9.2 8 Sudeste 13 Sudeste 0 889 0.7 89
2020-04-06 07:00:00 9.6 5 Sur 15 Sudeste 0 888.8 0.5 87
2020-04-06 06:00:00 9.8 7 Sudeste 20 Sudeste 0 888.5 0.1 89
2020-04-06 05:00:00 10 9 Sudeste 17 Sudeste 0 888.3 -0.2 86
2020-04-06 04:00:00 10.1 8 Sur 21 Sudeste 0 888.3 -0.3 85
2020-04-06 03:00:00 10.4 9 Sudeste 21 Sur 0 888.4 -0.2 89
2020-04-06 02:00:00 10.4 8 Sudeste 20 Sudeste 0 888.5 0 88
2020-04-06 01:00:00 10.7 6 Sur 18 Sudeste 0.6 888.6 0.7 88
2020-04-06 00:00:00 10.9 7 Sur 21 Sudeste 0.4 888.6 1.2 87
2020-04-05 23:00:00 11.4 10 Sur 24 Sur 0 888.5 1 80
2020-04-05 22:00:00 12.1 12 Sur 28 Sur 0 887.9 0.8 74
2020-04-05 21:00:00 12.5 17 Sur 29 Sur 0 887.4 0.4 66
2020-04-05 20:00:00 13.1 16 Sur 31 Sur 0 887.5 0.2 62
2020-04-05 19:00:00 13.6 16 Sur 36 Sur 0 887.1 -0.3 59
2020-04-05 18:00:00 14.2 21 Sur 38 Sur 0 887 -0.5 58
2020-04-05 17:00:00 15.7 21 Sur 35 Sur 0 887.3 -0.6 53
2020-04-05 16:00:00 14.7 17 Sur 38 Sudeste 0 887.4 -0.9 58
2020-04-05 15:00:00 13.6 22 Sudeste 43 Sudeste 0 887.5 -0.6 60
2020-04-05 14:00:00 13.5 22 Sudeste 45 Sudeste 0 887.9 -0.4 62
2020-04-05 13:00:00 12 23 Sudeste 42 Sur 0 888.3 0.2 64
2020-04-05 12:00:00 10.8 20 Sudeste 37 Sur 0 888.1 0.1 69
2020-04-05 11:00:00 8.9 17 Sudeste 36 Sudeste 0 888.3 0.9 79
2020-04-05 10:00:00 8 17 Sudeste 32 Sur 0 888.1 1 85
2020-04-05 09:00:00 7.3 16 Sudeste 32 Sudeste 0 888 1.2 88
2020-04-05 08:00:00 6.4 13 Sudeste 26 Sudeste 0 887.4 0.3 90
2020-04-05 07:00:00 6.7 13 Sudeste 23 Sur 0 887.1 0.4 87
2020-04-05 06:00:00 7 13 Sudeste 26 Sudeste 0 886.8 0.1 81
2020-04-05 05:00:00 8.4 10 Sur 21 Sur 0 887.1 0.4 74
2020-04-05 04:00:00 8.5 10 Sudeste 30 Sur 0 886.7 -0.1 73
2020-04-05 03:00:00 8.5 15 Sur 30 Sur 0 886.7 0.1 73
2020-04-05 02:00:00 8.7 9 Sudeste 18 Sur 0 886.7 0.2 72
2020-04-05 01:00:00 9 10 Sudeste 27 Sudeste 0 886.8 0.3 70
2020-04-05 00:00:00 9.2 13 Sudeste 37 Sudeste 0 886.6 0.7 71
2020-04-04 23:00:00 10 18 Sudeste 38 Sudeste 0 886.5 0.4 67
2020-04-04 22:00:00 10.9 17 Sudeste 32 Sudeste 0 886.5 0.4 64
2020-04-04 21:00:00 11.4 11 Sudeste 24 Sudeste 0 885.9 0.1 57
2020-04-04 20:00:00 11.8 9 Sudeste 28 Sudeste 0 886.1 0.3 55
2020-04-04 19:00:00 12.2 13 Sudeste 31 Sudeste 0 886.1 0.3 51
2020-04-04 18:00:00 13.4 16 Sudeste 39 Sudeste 0 885.8 -0.3 44
2020-04-04 17:00:00 13.2 22 Sudeste 43 Sudeste 0 885.8 -0.7 44
2020-04-04 16:00:00 13.2 23 Sudeste 46 Sudeste 0 885.8 -1.2 44
2020-04-04 15:00:00 13.8 25 Sudeste 49 Sudeste 0 886.1 -1 48
2020-04-04 14:00:00 12.9 26 Sudeste 52 Sudeste 0 886.5 -0.4 42
2020-04-04 13:00:00 12 25 Sudeste 46 Sudeste 0 887 0.4 45
2020-04-04 12:00:00 11.3 21 Sudeste 44 Sur 0 887.1 0.7 54
2020-04-04 11:00:00 9.8 15 Sudeste 32 Sur 0 886.9 0.6 64
2020-04-04 10:00:00 8 14 Sur 27 Sur 0 886.6 0.3 68
2020-04-04 09:00:00 6.5 10 Sudeste 29 Sudeste 0 886.4 0 72
2020-04-04 08:00:00 5.3 7 Sur 25 Sudeste 0 886.3 -0.5 68
2020-04-04 07:00:00 5.1 9 Sudeste 21 Sur 0 886.3 -0.8 67
2020-04-04 06:00:00 4.3 6 Sudeste 11 Sur 0 886.4 -1.2 69
2020-04-04 05:00:00 4.3 6 Sudeste 11 Sudeste 0 886.8 -1 68
2020-04-04 04:00:00 4.5 8 Sudeste 12 Sur 0 887.1 -0.9 67
2020-04-04 03:00:00 4.5 5 Sudeste 8 Sudeste 0 887.6 -0.5 69
2020-04-04 02:00:00 5.6 5 Sudeste 12 Sudeste 0 887.8 -0.3 65
2020-04-04 01:00:00 5.8 6 Sudeste 9 Sudeste 0 888 0.5 68
2020-04-04 00:00:00 6.5 3 Sudeste 8 Sudeste 0 888.1 1 67
2020-04-03 23:00:00 7.8 2 Sur 6 Noroeste 0 888.1 1.3 65
2020-04-03 22:00:00 9.3 3 Este 11 Nordeste 0 887.5 0.7 62
2020-04-03 21:00:00 11 7 Este 16 Norte 0 887.1 0.3 55
2020-04-03 20:00:00 12.8 8 Nordeste 17 Norte 0 886.8 -0.3 43
2020-04-03 19:00:00 13.5 8 Norte 19 Nordeste 0 886.8 -0.8 40
2020-04-03 18:00:00 13.4 10 Nordeste 22 Nordeste 0 886.8 -1.2 45
2020-04-03 17:00:00 13 10 Norte 19 Norte 0 887.1 -1.6 46
2020-04-03 16:00:00 12.8 8 Este 25 Norte 0 887.6 -1.4 47
2020-04-03 15:00:00 11.8 5 Oeste 17 Norte 0 888 -1 51
2020-04-03 14:00:00 10.3 11 Noroeste 19 Norte 0 888.7 -0.2 58
2020-04-03 13:00:00 9 9 Norte 21 Norte 0 889 0.3 60
2020-04-03 12:00:00 7.9 6 Noroeste 13 Norte 0 889 0.6 62
2020-04-03 11:00:00 4.4 2 Sudoeste 8 Sur 0 888.9 1 97
2020-04-03 10:00:00 2 3 Sur 5 Sur 0 888.7 1.2 100
2020-04-03 09:00:00 0.8 2 Nordeste 5 Sudeste 0 888.4 1.1 99
2020-04-03 08:00:00 0.6 0 Calma 4 Sudeste 0 887.9 0.6 98
2020-04-03 07:00:00 0.6 2 Sudeste 5 Sudoeste 0 887.5 0 98
2020-04-03 06:00:00 0.5 0 Calma 4 Sudoeste 0 887.3 -0.4 97
2020-04-03 05:00:00 0.9 3 Oeste 4 Oeste 0 887.3 -0.5 97
2020-04-03 04:00:00 1.6 2 Nordeste 4 Norte 0 887.5 -0.5 97
2020-04-03 03:00:00 1.9 2 Norte 8 Sur 0 887.7 -0.2 95
2020-04-03 02:00:00 2.5 0 Calma 5 Norte 0 887.8 0.1 93
2020-04-03 01:00:00 4 2 Norte 10 Noroeste 0 888 0.8 92
2020-04-03 00:00:00 5 6 Noroeste 11 Noroeste 0 887.9 1.5 94
2020-04-02 23:00:00 4.9 8 Norte 14 Norte 0 887.7 1.6 96
2020-04-02 22:00:00 5.6 8 Noroeste 15 Noroeste 0 887.2 1.7 94
2020-04-02 21:00:00 6.1 8 Norte 26 Norte 0.6 886.4 1.2 93
2020-04-02 20:00:00 6.6 20 Norte 31 Noroeste 0 886.1 1.2 86
2020-04-02 19:00:00 7.1 10 Norte 28 Norte 0 885.5 0.7 88
2020-04-02 18:00:00 8.6 15 Norte 23 Norte 0 885.2 0.3 78
2020-04-02 17:00:00 7.1 8 Noroeste 32 Nordeste 1.2 884.9 0.1 89
2020-04-02 16:00:00 8.5 18 Noroeste 30 Noroeste 0 884.8 -0.1 75
2020-04-02 15:00:00 8.9 13 Norte 34 Norte 0 884.9 0.2 66
2020-04-02 14:00:00 9 16 Noroeste 29 Noroeste 0 884.8 0.4 68
2020-04-02 13:00:00 7.3 13 Norte 21 Norte 0 884.9 1.1 72
2020-04-02 12:00:00 5.8 12 Norte 20 Noroeste 0 884.7 1.1 82
2020-04-02 11:00:00 4.3 3 Oeste 8 Oeste 0 884.4 1.4 89
2020-04-02 10:00:00 2.4 4 Oeste 8 Sudoeste 0 883.8 1.1 99
2020-04-02 09:00:00 1.1 5 Sudeste 12 Sudeste 0 883.6 1.1 98
2020-04-02 08:00:00 0.6 7 Sudeste 12 Sudeste 0 883 0.6 97
2020-04-02 07:00:00 1.2 3 Nordeste 6 Norte 0 882.7 -0.1 97
2020-04-02 06:00:00 0.1 0 Calma 8 Sur 0 882.5 -0.9 87
2020-04-02 05:00:00 0.9 5 Sur 8 Sur 0 882.4 -1.1 86
2020-04-02 04:00:00 1.7 6 Sur 10 Sudoeste 0 882.8 -0.9 81
2020-04-02 03:00:00 2.1 3 Sudeste 10 Sur 0 883.4 -0.4 81
2020-04-02 02:00:00 2.9 3 Sur 10 Sudoeste 0 883.5 -0.2 79
2020-04-02 01:00:00 3.7 2 Oeste 8 Sur 0 883.7 0.6 78
2020-04-02 00:00:00 4.4 3 Nordeste 5 Norte 0 883.8 1.2 78
2020-04-01 23:00:00 5.8 4 Norte 15 Nordeste 0 883.7 1.5 72
2020-04-01 22:00:00 7.2 4 Sur 13 Noroeste 0 883.1 1 61
2020-04-01 21:00:00 7.8 8 Noroeste 14 Norte 0 882.6 0.6 61
2020-04-01 20:00:00 9 11 Sur 21 Sudeste 0 882.2 0 47
2020-04-01 19:00:00 10.2 12 Sur 29 Sur 0 882.1 -0.4 43
2020-04-01 18:00:00 10.4 18 Sur 28 Sur 0 882 -0.4 45
2020-04-01 17:00:00 11 16 Sur 34 Sur 0 882.2 -0.3 46
2020-04-01 16:00:00 10 17 Sur 33 Sur 0 882.5 -0.2 48
2020-04-01 15:00:00 10 15 Sur 32 Sur 0 882.4 -0.6 53
2020-04-01 14:00:00 10.1 13 Sur 27 Sur 0 882.5 -0.4 60
2020-04-01 13:00:00 8.3 11 Sur 26 Sudoeste 0 882.7 0.4 65
2020-04-01 12:00:00 7.2 12 Sur 22 Sur 0 883 1.1 67
2020-04-01 11:00:00 6 11 Sur 18 Sur 0 882.9 1.4 82
2020-04-01 10:00:00 6.4 11 Sudeste 21 Sur 0 882.3 0.8 82
2020-04-01 09:00:00 4.2 6 Sudeste 13 Este 0 881.9 0.8 94
2020-04-01 08:00:00 3.6 8 Sudeste 14 Este 0 881.5 0.3 94
2020-04-01 07:00:00 3.8 5 Sudeste 9 Este 0 881.5 0.4 95
2020-04-01 06:00:00 3.8 6 Sudeste 15 Sudeste 0 881.1 -0.2 95
2020-04-01 05:00:00 4.1 6 Sudeste 18 Sudeste 0 881.2 0.1 96
2020-04-01 04:00:00 4.1 9 Sudeste 19 Sudeste 0 881.1 0.3 95
2020-04-01 03:00:00 4.3 9 Sudeste 17 Sudeste 0 881.3 0.8 95
2020-04-01 02:00:00 3.9 3 Este 21 Sudeste 0 881.1 1 93
2020-04-01 01:00:00 4.3 11 Sudeste 27 Sudeste 0 880.8 1.2 92
2020-04-01 00:00:00 4.3 9 Sudeste 20 Sur 0 880.5 0.9 89
2020-03-31 23:00:00 4.1 7 Sudeste 15 Sudeste 0.2 880.1 1.4 91
2020-03-31 22:00:00 4.3 11 Sudeste 17 Sur 3 879.6 1.7 92
2020-03-31 21:00:00 5.2 6 Sudoeste 17 Sur 1.2 879.6 2 88
2020-03-31 20:00:00 6.2 9 Sudeste 30 Sur 1 878.7 1.4 88
2020-03-31 19:00:00 7 12 Sudeste 25 Sudeste 0 877.9 0.9 84
2020-03-31 18:00:00 7.3 4 Sudeste 29 Sudeste 0 877.6 0.9 81
2020-03-31 17:00:00 6.6 15 Sudeste 36 Sudeste 0 877.3 0.6 86
2020-03-31 16:00:00 6.2 14 Sudeste 41 Sudeste 0 877 0.2 87
2020-03-31 15:00:00 5.2 19 Sudeste 40 Sudeste 0 876.7 -0.4 87
2020-03-31 14:00:00 4.7 18 Sudeste 41 Sudeste 0 876.7 0.1 88
2020-03-31 13:00:00 4.8 24 Sudeste 41 Sudeste 0 876.8 0 84
2020-03-31 12:00:00 2.8 18 Sudeste 41 Sudeste 0 877.1 0.2 90
2020-03-31 11:00:00 2.3 22 Sudeste 39 Sudeste 0 876.6 0.1 90
2020-03-31 10:00:00 1.4 10 Sudeste 21 Este 0.2 876.8 0.1 92
2020-03-31 09:00:00 1 10 Sudeste 23 Sudeste 0.2 876.9 -0.4 93
2020-03-31 08:00:00 0.2 5 Este 14 Sudeste 0.2 876.5 -1.4 95
2020-03-31 07:00:00 -0.6 3 Este 9 Este 0 876.7 -1.9 96
2020-03-31 06:00:00 -1.1 4 Este 6 Nordeste 0 877.3 -2.4 95
2020-03-31 05:00:00 -1.2 6 Nordeste 15 Nordeste 0 877.9 -2.6 95
2020-03-31 04:00:00 -1.2 8 Nordeste 14 Nordeste 0 878.6 -2.8 95
2020-03-31 03:00:00 -1.2 7 Nordeste 16 Nordeste 0 879.7 -2.2 95
2020-03-31 02:00:00 -1.2 9 Norte 15 Nordeste 0 880.5 -1.9 96
2020-03-31 01:00:00 -0.9 6 Nordeste 15 Nordeste 0 881.4 -1 95
2020-03-31 00:00:00 -1 5 Nordeste 14 Norte 0.4 881.9 -0.7 95
2020-03-30 23:00:00 -1 7 Norte 18 Norte 0.2 882.4 -0.3 95
2020-03-30 22:00:00 -0.8 8 Norte 14 Nordeste 0.4 882.4 -0.8 94
2020-03-30 21:00:00 -0.5 6 Nordeste 14 Nordeste 0.2 882.6 -1 91
2020-03-30 20:00:00 -0.4 8 Nordeste 17 Nordeste 0 882.7 -1.1 87
2020-03-30 19:00:00 -0.1 8 Nordeste 21 Nordeste 0 883.2 -1.1 86
2020-03-30 18:00:00 0.3 13 Nordeste 21 Nordeste 0.2 883.6 -1.3 83
2020-03-30 17:00:00 0.1 7 Nordeste 15 Nordeste 0.4 883.8 -1.7 88
2020-03-30 16:00:00 0.1 8 Norte 22 Norte 0.2 884.3 -1.6 85
2020-03-30 15:00:00 0.8 14 Nordeste 25 Norte 0 884.9 -1.5 72
2020-03-30 14:00:00 1.5 17 Norte 29 Norte 0 885.5 -1 64
2020-03-30 13:00:00 0.4 14 Norte 27 Nordeste 0 885.9 -0.4 71
2020-03-30 12:00:00 0.4 16 Norte 27 Norte 0 886.4 0 73
2020-03-30 11:00:00 0.5 14 Norte 27 Nordeste 0 886.5 0.2 74
2020-03-30 10:00:00 0.1 15 Norte 27 Norte 0 886.3 0 84
2020-03-30 09:00:00 0.5 15 Norte 24 Norte 0 886.4 -0.1 85
2020-03-30 08:00:00 0.7 12 Norte 26 Norte 0 886.3 -0.6 83
2020-03-30 07:00:00 1.1 16 Norte 30 Norte 0 886.3 -0.6 83
2020-03-30 06:00:00 1.8 18 Norte 31 Norte 0 886.5 -0.8 84
2020-03-30 05:00:00 2.4 14 Norte 26 Norte 0 886.9 -0.6 85
2020-03-30 04:00:00 2.8 14 Norte 20 Norte 0 886.9 -0.9 87
2020-03-30 03:00:00 3.9 10 Norte 18 Noroeste 0 887.3 -0.4 81
2020-03-30 02:00:00 4.8 9 Norte 16 Norte 0 887.5 -0.1 74
2020-03-30 01:00:00 5.9 5 Norte 19 Norte 0 887.8 0.4 67
2020-03-30 00:00:00 7 12 Norte 28 Nordeste 0 887.7 0.3 61
2020-03-29 23:00:00 8.4 16 Nordeste 32 Este 0 887.6 0.2 53
2020-03-29 22:00:00 10.4 9 Norte 17 Noroeste 0 887.4 0.1 49
2020-03-29 21:00:00 11.5 13 Norte 23 Noroeste 0 887.4 -0.2 45
2020-03-29 20:00:00 12.4 14 Norte 26 Norte 0 887.4 -0.6 42
2020-03-29 19:00:00 13.4 15 Noroeste 25 Noroeste 0 887.3 -1.1 39
2020-03-29 18:00:00 12.8 12 Norte 25 Norte 0 887.6 -1.3 40
2020-03-29 17:00:00 13.9 15 Norte 26 Norte 0 888 -1.3 36
2020-03-29 16:00:00 14 11 Noroeste 26 Norte 0 888.4 -1.4 38
2020-03-29 15:00:00 13.6 15 Noroeste 26 Norte 0 888.9 -1.2 38
2020-03-29 14:00:00 13 12 Norte 26 Norte 0 889.3 -1 40
2020-03-29 13:00:00 12.3 12 Noroeste 22 Norte 0 889.8 -0.4 43
2020-03-29 12:00:00 11.2 12 Noroeste 19 Norte 0 890.1 0 46
2020-03-29 11:00:00 9.1 2 Nordeste 6 Noroeste 0 890.3 0.5 52
2020-03-29 10:00:00 5.8 2 Sudoeste 6 Oeste 0 890.2 0.6 62
2020-03-29 09:00:00 2.5 3 Sudeste 7 Sudeste 0 890.1 0.4 74
2020-03-29 08:00:00 1.1 2 Sudeste 8 Sudoeste 0 889.8 0 76
2020-03-29 07:00:00 1.5 3 Sudoeste 7 Sur 0 889.6 -0.5 75
2020-03-29 06:00:00 1.6 2 Sudeste 5 Sur 0 889.7 -0.5 74
2020-03-29 05:00:00 1.6 3 Sudeste 6 Sur 0 889.8 -0.6 74
2020-03-29 03:00:00 2.9 4 Sudeste 6 Sudeste 0 890.2 -0.3 68
2020-03-29 01:00:00 4 4 Sur 7 Sudeste 0 890.4 0.1 64
2020-03-29 00:00:00 4.7 4 Sur 8 Sudeste 0 890.7 0.8 58
2020-03-28 23:00:00 5.6 4 Sudeste 9 Sudeste 0 890.5 1.3 54
2020-03-28 22:00:00 6.5 5 Sur 12 Sudeste 0 890.3 1.5 53
2020-03-28 21:00:00 7.4 5 Sudeste 13 Sudeste 0 889.9 1.5 52
2020-03-28 20:00:00 8.8 6 Sudeste 17 Sudeste 0 889.2 1.2 48
2020-03-28 19:00:00 11.1 12 Sudeste 22 Sur 0 888.8 0.8 41
2020-03-28 18:00:00 12.3 13 Sur 23 Sur 0 888.4 0 37
2020-03-28 17:00:00 12.7 11 Sudeste 23 Sudeste 0 888 -0.7 37
2020-03-28 16:00:00 13.1 9 Sudeste 24 Sudeste 0 888 -0.9 37
2020-03-28 15:00:00 12.5 11 Sudeste 30 Sur 0 888.4 -0.5 34
2020-03-28 14:00:00 11.7 13 Sudeste 28 Sudeste 0 888.7 -0.3 35
2020-03-28 13:00:00 10.9 13 Sudeste 28 Sur 0 888.9 0.2 39
2020-03-28 12:00:00 10.2 9 Sudeste 24 Sudeste 0 888.9 0.7 43
2020-03-28 11:00:00 8.6 9 Sudeste 25 Sudeste 0 889 1.1 51
2020-03-28 10:00:00 6 6 Sur 12 Sudeste 0 888.7 1.3 67
2020-03-28 09:00:00 2.7 2 Noroeste 9 Sudeste 0 888.2 1.2 76
2020-03-28 08:00:00 -0.3 0 Calma 6 Sudoeste 0 887.9 1.1 89
2020-03-28 07:00:00 -1 3 Sudoeste 9 Sur 0 887.4 0.7 89
2020-03-28 06:00:00 -0.5 6 Sur 9 Sur 0 887 0.2 89
2020-03-28 05:00:00 0.4 5 Sur 11 Sur 0 886.8 0.1 88
2020-03-28 04:00:00 1.2 8 Sudeste 14 Sudeste 0 886.7 0.1 88
2020-03-28 03:00:00 1.4 6 Sudeste 15 Sudeste 0 886.8 0.5 86
2020-03-28 02:00:00 2.2 9 Sudeste 15 Sudeste 0 886.7 0.8 81
2020-03-28 01:00:00 2.4 9 Sudeste 17 Sudeste 0 886.6 1 80
2020-03-28 00:00:00 2.5 8 Sudeste 15 Sudeste 0 886.3 1.3 78
2020-03-27 23:00:00 2.7 8 Sudeste 16 Sudeste 0 885.9 1.6 74
2020-03-27 22:00:00 3.2 6 Sudeste 20 Sudeste 0 885.6 1.8 69
2020-03-27 21:00:00 4 9 Sudeste 18 Sudeste 0 885 1.5 63
2020-03-27 20:00:00 4.8 6 Sudeste 21 Sudeste 0 884.3 1.2 56
2020-03-27 19:00:00 6.6 13 Sudeste 30 Este 0 883.8 0.9 50
2020-03-27 18:00:00 7.4 15 Sudeste 27 Este 0 883.5 0.6 47
2020-03-27 17:00:00 7.7 14 Sudeste 36 Sudeste 0 883.1 0.5 46
2020-03-27 16:00:00 8.7 15 Sudeste 32 Sudeste 0 882.9 0.1 45
2020-03-27 15:00:00 7.9 17 Sudeste 35 Sudeste 0 882.9 0.1 54
2020-03-27 14:00:00 7.9 17 Sudeste 32 Sudeste 0 882.6 0.1 48
2020-03-27 13:00:00 5.6 8 Sudeste 28 Sur 0 882.8 0.6 57
2020-03-27 12:00:00 5.4 12 Sudeste 25 Sudeste 0 882.8 1 57
2020-03-27 11:00:00 5.8 12 Sur 23 Sudeste 0 882.5 1 58
2020-03-27 10:00:00 4.5 5 Sur 11 Sur 0 882.2 0.9 61
2020-03-27 09:00:00 1.2 3 Norte 13 Norte 0 881.8 0.6 72
2020-03-27 08:00:00 -0.1 5 Norte 9 Norte 0 881.5 0.4 76
2020-03-27 07:00:00 0.3 4 Sudoeste 9 Sudeste 0 881.3 0.2 77
2020-03-27 06:00:00 0.4 5 Nordeste 12 Nordeste 0 881.2 -0.3 75
2020-03-27 05:00:00 0.3 6 Norte 15 Norte 0 881.1 -0.8 77
2020-03-27 04:00:00 1 6 Nordeste 13 Norte 0 881.1 -0.6 80
2020-03-27 03:00:00 0.9 5 Norte 12 Norte 0 881.5 -0.3 79
2020-03-27 02:00:00 1.4 4 Noroeste 17 Norte 0 881.9 0.2 76
2020-03-27 01:00:00 1.9 9 Nordeste 17 Nordeste 0 881.7 0.1 74
2020-03-27 00:00:00 2.8 7 Norte 12 Norte 0 881.8 0.1 68
2020-03-26 23:00:00 4.2 5 Este 21 Nordeste 0 881.7 0.1 60
2020-03-26 22:00:00 5.2 12 Nordeste 21 Nordeste 0 881.6 0.1 57
2020-03-26 21:00:00 5.8 6 Nordeste 14 Nordeste 0 881.7 0.2 55
2020-03-26 20:00:00 7.1 9 Nordeste 19 Noroeste 0 881.6 0.2 52
2020-03-26 19:00:00 9.4 15 Noroeste 28 Noroeste 0 881.5 -0.2 35
2020-03-26 18:00:00 10.5 16 Noroeste 27 Noroeste 0 881.5 -0.4 35
2020-03-26 17:00:00 10.8 18 Norte 31 Norte 0 881.4 -0.9 33
2020-03-26 16:00:00 10.5 19 Norte 37 Noroeste 0 881.7 -1 30
2020-03-26 15:00:00 10.9 22 Noroeste 38 Noroeste 0 881.9 -1.1 26
2020-03-26 14:00:00 9.8 23 Noroeste 37 Noroeste 0 882.3 -1.1 26
2020-03-26 13:00:00 8.9 18 Noroeste 31 Noroeste 0 882.7 -0.9 36
2020-03-26 12:00:00 7.9 15 Norte 28 Norte 0 883 -0.5 38
2020-03-26 11:00:00 6.3 12 Norte 23 Norte 0 883.4 -0.4 40
2020-03-26 10:00:00 5.3 10 Norte 18 Norte 0 883.6 0.1 41
2020-03-26 09:00:00 3.6 5 Oeste 10 Noroeste 0 883.5 0 45
2020-03-26 08:00:00 0.9 5 Noroeste 14 Norte 0 883.8 0.5 56
2020-03-26 07:00:00 0.8 10 Norte 17 Norte 0 883.5 -0.1 55
2020-03-26 06:00:00 1.1 7 Noroeste 13 Noroeste 0 883.5 -0.5 64
2020-03-26 05:00:00 2.4 7 Norte 20 Norte 0 883.3 -1 61
2020-03-26 04:00:00 3.8 12 Norte 19 Norte 0 883.6 -0.9 70
2020-03-26 03:00:00 5.2 9 Norte 21 Noroeste 0 884 -0.5 73
2020-03-26 02:00:00 6.6 10 Noroeste 20 Noroeste 0 884.3 -0.3 82
2020-03-26 01:00:00 7.5 10 Norte 20 Norte 0 884.5 -0.4 77
2020-03-26 00:00:00 7.7 4 Sudeste 9 Sur 0 884.5 -0.5 75
2020-03-25 23:00:00 7.4 3 Sudoeste 13 Sudoeste 0 884.6 -0.3 75
2020-03-25 22:00:00 7.4 9 Sudoeste 14 Sudoeste 0 884.9 0.1 74
2020-03-25 21:00:00 8.6 7 Oeste 17 Noroeste 0 885 0 65
2020-03-25 20:00:00 10.3 10 Noroeste 20 Noroeste 0 884.9 -0.1 50
2020-03-25 19:00:00 12.8 13 Noroeste 30 Norte 0 884.8 -0.6 38
2020-03-25 18:00:00 13.3 20 Norte 34 Noroeste 0 885 -1 34
2020-03-25 17:00:00 13.7 22 Noroeste 38 Noroeste 0 885 -1.5 43
2020-03-25 16:00:00 14 21 Noroeste 34 Noroeste 0 885.4 -1.5 47
2020-03-25 15:00:00 12.4 19 Noroeste 34 Noroeste 0 886 -1.1 53
2020-03-25 14:00:00 13 17 Noroeste 33 Noroeste 0 886.5 -0.6 49
2020-03-25 13:00:00 11.8 18 Noroeste 28 Norte 0 886.9 -0.6 56
2020-03-25 12:00:00 11.3 16 Norte 30 Noroeste 0 887.1 -0.3 56
2020-03-25 11:00:00 10.5 11 Norte 21 Norte 0 887.1 -0.2 63
2020-03-25 10:00:00 7.7 4 Sudoeste 9 Sudoeste 0 887.5 0.5 78
2020-03-25 09:00:00 4.7 3 Sur 6 Sur 0 887.4 0.2 84
2020-03-25 08:00:00 2.7 0 Calma 12 Sur 0 887.3 0.2 91
2020-03-25 07:00:00 3.2 5 Sur 17 Sudeste 0 887 -0.3 88
2020-03-25 06:00:00 3.6 11 Sur 18 Sur 0 887.2 -0.3 89
2020-03-25 05:00:00 3.9 7 Sudeste 15 Sur 0 887.1 -0.6 88
2020-03-25 04:00:00 4.2 10 Sur 19 Sur 0 887.3 -0.5 87
2020-03-25 03:00:00 4.5 6 Sur 19 Sudeste 0 887.5 -0.1 89
2020-03-25 02:00:00 5.2 11 Sudeste 23 Sudeste 0 887.7 0.1 87
2020-03-25 01:00:00 5.9 9 Sudeste 21 Sudeste 0 887.8 0.3 84
2020-03-25 00:00:00 6.7 11 Sudeste 21 Sudeste 0 887.6 0.2 79
2020-03-24 23:00:00 7.6 9 Sudeste 22 Sudeste 0 887.6 0.7 74
2020-03-24 22:00:00 8.4 9 Sudeste 23 Sudeste 0 887.5 0.9 72
2020-03-24 21:00:00 9.2 13 Sudeste 26 Sudeste 0 887.4 1.1 64
2020-03-24 20:00:00 9.6 11 Sudeste 18 Sudeste 0 886.9 0.7 65
2020-03-24 19:00:00 10.8 9 Sudeste 26 Sudeste 0 886.6 0.4 59
2020-03-24 18:00:00 11.9 14 Sudeste 29 Sudeste 0 886.3 -0.1 55
2020-03-24 17:00:00 13.3 14 Sudeste 28 Sudeste 0 886.2 -0.7 49
2020-03-24 16:00:00 12.7 14 Sudeste 28 Este 0 886.2 -1 49
2020-03-24 15:00:00 12.9 15 Sudeste 31 Sudeste 0 886.4 -1.1 49
2020-03-24 14:00:00 11.9 17 Sudeste 36 Sudeste 0 886.9 -0.6 53
2020-03-24 13:00:00 12.1 17 Este 32 Sudeste 0 887.2 -0.5 54
2020-03-24 12:00:00 10.8 18 Sudeste 32 Este 0 887.5 -0.1 59
2020-03-24 11:00:00 8.4 12 Sudeste 25 Este 0 887.5 0.1 72
2020-03-24 10:00:00 7.2 13 Este 30 Este 0 887.7 0.7 75
2020-03-24 09:00:00 7.1 7 Este 20 Este 0 887.6 0.8 77
2020-03-24 08:00:00 5.4 8 Este 15 Este 0 887.4 0.4 81
2020-03-24 07:00:00 5.1 7 Este 20 Este 0 887 0 82
2020-03-24 06:00:00 5.1 10 Este 17 Este 0 886.8 -0.4 85
2020-03-24 05:00:00 5.9 10 Este 21 Sudeste 0 887 -0.3 85
2020-03-24 04:00:00 6.5 12 Este 23 Este 0 887 -0.4 83
2020-03-24 03:00:00 6.3 4 Este 18 Sudeste 0 887.2 -0.2 83
2020-03-24 02:00:00 6.6 10 Sudeste 28 Este 0 887.3 -0.1 82
2020-03-24 01:00:00 5.9 8 Este 16 Este 0 887.4 0.2 86
2020-03-24 00:00:00 6.3 5 Sudeste 15 Este 0 887.4 0.5 84
2020-03-23 23:00:00 7 8 Sudeste 26 Sudeste 0 887.4 0.8 80
2020-03-23 22:00:00 6.8 10 Este 24 Sudeste 0 887.2 1.3 80
2020-03-23 21:00:00 6.3 10 Este 17 Este 0 886.9 1.3 83
2020-03-23 20:00:00 7.7 8 Este 14 Este 0 886.6 1 76
2020-03-23 19:00:00 8.6 6 Sudeste 42 Este 0.4 885.9 0.1 70
2020-03-23 18:00:00 11.8 15 Sudeste 28 Sudeste 0 885.6 -0.5 52
2020-03-23 17:00:00 11 9 Sudeste 25 Sudeste 0 885.6 -0.9 64
2020-03-23 16:00:00 11.4 10 Sur 24 Sudeste 0 885.8 -0.9 54
2020-03-23 15:00:00 10.9 17 Sudeste 32 Este 0 886.1 -0.8 60
2020-03-23 14:00:00 9.6 13 Este 31 Sudeste 0 886.5 -0.3 71
2020-03-23 13:00:00 9.5 16 Sudeste 26 Este 0 886.7 0.1 70
2020-03-23 12:00:00 9 14 Este 25 Este 0 886.9 0.7 69
2020-03-23 11:00:00 7.6 9 Sudeste 19 Este 0 886.8 0.7 82
2020-03-23 10:00:00 7.7 6 Sudeste 12 Sudeste 0 886.6 1.1 80
2020-03-23 09:00:00 6.5 5 Sur 10 Este 0 886.2 0.9 82
2020-03-23 08:00:00 5 4 Nordeste 14 Este 0 886.1 1.2 88
2020-03-23 07:00:00 4.8 2 Oeste 7 Sudeste 0 885.5 0.7 90
2020-03-23 06:00:00 5.2 5 Sur 18 Sur 0 885.3 0.4 90
2020-03-23 05:00:00 5.2 10 Sudeste 17 Sudeste 0 884.9 -0.3 91
2020-03-23 04:00:00 5 3 Sur 9 Este 0 884.8 -0.5 88
2020-03-23 03:00:00 5.3 5 Sudeste 14 Sudeste 0 884.9 -0.5 88
2020-03-23 02:00:00 5.3 6 Sudeste 12 Sudeste 0 885.2 0 90
2020-03-23 01:00:00 5.7 5 Sudeste 14 Sudeste 0 885.3 0.4 89
2020-03-23 00:00:00 5.9 7 Sudeste 14 Sur 0 885.4 0.7 93
2020-03-22 23:00:00 6.5 2 Noroeste 8 Sur 0.2 885.2 1.2 89
2020-03-22 22:00:00 6.9 0 Calma 8 Sur 0 884.9 1.3 83
2020-03-22 21:00:00 7.1 3 Este 9 Norte 0 884.7 1.4 85
2020-03-22 20:00:00 7.5 3 Noroeste 9 Noroeste 0 884 1.1 77
2020-03-22 19:00:00 7.9 5 Noroeste 8 Sur 0 883.6 0.7 76
2020-03-22 18:00:00 8 5 Sur 11 Sudeste 0 883.3 0.3 74
2020-03-22 17:00:00 8.2 6 Sudeste 20 Sudeste 0 882.9 -0.4 72
2020-03-22 16:00:00 9.2 13 Este 21 Este 0 882.9 -0.7 68
2020-03-22 15:00:00 9.1 10 Nordeste 22 Norte 0 883 -0.7 70
2020-03-22 14:00:00 9 13 Norte 24 Norte 0 883.3 -0.5 67
2020-03-22 13:00:00 8.5 13 Norte 20 Norte 0 883.6 0 71
2020-03-22 12:00:00 8.5 6 Noroeste 14 Noroeste 0 883.7 0.5 65
2020-03-22 11:00:00 7.6 4 Este 10 Nordeste 0 883.8 0.9 70
2020-03-22 10:00:00 6.2 2 Noroeste 8 Sudoeste 0 883.6 1 80
2020-03-22 09:00:00 5.3 5 Sur 9 Sur 0 883.2 0.8 85
2020-03-22 08:00:00 3.9 3 Oeste 6 Sur 0 882.9 0.7 90
2020-03-22 07:00:00 3.7 5 Sur 8 Sur 0 882.6 0.5 90
2020-03-22 06:00:00 3.7 6 Sur 10 Sur 0 882.4 -0.1 90
2020-03-22 05:00:00 3.7 5 Sur 12 Sudeste 0 882.2 -0.5 89
2020-03-22 04:00:00 3.9 4 Sudeste 13 Sur 0 882.1 -0.8 89
2020-03-22 03:00:00 4 5 Sur 14 Sudeste 0 882.5 -0.7 89
2020-03-22 02:00:00 4.3 5 Sur 14 Sudeste 0 882.7 -0.1 90
2020-03-22 01:00:00 4.4 6 Sudeste 14 Sudeste 0 882.9 0.1 90
2020-03-22 00:00:00 4.3 6 Sudeste 14 Sudeste 0 883.2 0.5 89
2020-03-21 23:00:00 4.2 9 Sudeste 22 Sudeste 0 882.8 0.5 88
2020-03-21 22:00:00 4.2 11 Sudeste 19 Sudeste 0 882.8 1.1 87
2020-03-21 21:00:00 4.4 7 Sudeste 17 Sudeste 0 882.7 1 88
2020-03-21 20:00:00 5 8 Sudeste 22 Sur 0 882.3 0.3 83
2020-03-21 19:00:00 6.1 14 Sudeste 25 Sudeste 0 881.7 -0.3 76
2020-03-21 18:00:00 6.5 12 Sudeste 25 Sudeste 0 881.7 -0.6 78
2020-03-21 17:00:00 7.3 13 Sudeste 27 Sudeste 0 882 -0.5 77
2020-03-21 16:00:00 7.1 11 Sudeste 22 Sur 0 882 -0.8 80
2020-03-21 15:00:00 7 12 Sur 23 Sur 0 882.3 -0.8 81
2020-03-21 14:00:00 6.1 13 Sudeste 22 Sur 0.2 882.5 -0.5 94
2020-03-21 13:00:00 6 10 Sudeste 33 Sudeste 0 882.8 -0.3 92
2020-03-21 12:00:00 6.3 15 Sudeste 34 Sudeste 0.2 883.1 0.6 89
2020-03-21 11:00:00 5.9 23 Sudeste 42 Sur 0 883 1 90
2020-03-21 10:00:00 5.4 11 Sudeste 35 Sudeste 0 883.1 0.9 94
2020-03-21 09:00:00 5.6 18 Sudeste 39 Sudeste 0 882.5 -0.1 93
2020-03-21 08:00:00 5.4 19 Sudeste 40 Sudeste 0 882 -0.8 94
2020-03-21 07:00:00 5.2 24 Sudeste 43 Sudeste 0 882.2 -1 94
2020-03-21 06:00:00 5.3 17 Sudeste 39 Sudeste 0 882.6 -1.1 93
2020-03-21 05:00:00 5.2 18 Sudeste 40 Sudeste 0 882.8 -1.4 93
2020-03-21 04:00:00 5.3 22 Sudeste 41 Sudeste 0.2 883.2 -1.6 93
2020-03-21 03:00:00 5.8 20 Sudeste 45 Sur 0 883.7 -1.1 88
2020-03-21 02:00:00 6.4 19 Sudeste 41 Sudeste 0 884.2 -1 86
2020-03-21 01:00:00 6.6 19 Sudeste 40 Sudeste 0 884.8 -0.5 89
2020-03-21 00:00:00 6.6 17 Sudeste 41 Sudeste 0 884.8 -0.5 89
2020-03-20 23:00:00 6.4 14 Sudeste 30 Sudeste 0 885.2 -0.1 86
2020-03-20 22:00:00 6.4 7 Este 21 Este 0 885.3 -0.5 85
2020-03-20 21:00:00 6.9 13 Este 30 Este 0 885.3 -0.5 84
2020-03-20 20:00:00 7.4 12 Sudeste 28 Sudeste 0 885.3 -0.8 82
2020-03-20 19:00:00 8.2 14 Sudeste 30 Sur 0 885.8 -0.4 80
2020-03-20 18:00:00 8.2 15 Sudeste 38 Sudeste 0 885.8 -0.8 81
2020-03-20 17:00:00 8 20 Sudeste 43 Sudeste 0 886.1 -0.7 83
2020-03-20 16:00:00 7.9 17 Sudeste 36 Sudeste 0 886.2 -0.7 84
2020-03-20 15:00:00 8.1 14 Sudeste 27 Sudeste 0 886.6 -0.5 82
2020-03-20 14:00:00 7.9 14 Sudeste 42 Sudeste 0 886.8 -0.5 82
2020-03-20 13:00:00 7.5 22 Sudeste 39 Sudeste 0 886.9 -0.2 83
2020-03-20 12:00:00 8 22 Sudeste 42 Sudeste 0 887.1 0.3 81
2020-03-20 11:00:00 6.5 23 Sudeste 47 Sudeste 0 887.3 0.8 87
2020-03-20 10:00:00 6.4 28 Sudeste 44 Sudeste 0 887.1 0.4 87
2020-03-20 09:00:00 6.1 19 Sudeste 37 Sudeste 0 886.8 0.3 91
2020-03-20 08:00:00 5.9 20 Sudeste 40 Sudeste 0 886.5 -0.1 91
2020-03-20 07:00:00 6.2 17 Sudeste 36 Sudeste 0 886.7 0 94
2020-03-20 06:00:00 6.3 20 Sudeste 39 Sur 0 886.5 -0.6 95
2020-03-20 05:00:00 6.6 17 Sudeste 34 Sudeste 0 886.6 -0.8 92
2020-03-20 04:00:00 6.8 20 Sudeste 36 Sudeste 0 886.7 -1.2 91
2020-03-20 03:00:00 7 18 Sudeste 38 Sudeste 0 887.1 -0.9 90
2020-03-20 02:00:00 7.2 12 Sudeste 29 Sur 0 887.4 -1.2 88
2020-03-20 01:00:00 7.4 7 Sur 26 Este 0 887.9 -0.7 86
2020-03-20 00:00:00 7.6 11 Sudeste 28 Sur 0 888 -0.3 86
2020-03-19 23:00:00 8.2 11 Sur 24 Sudeste 0 888.6 0.2 83
2020-03-19 22:00:00 8.6 10 Sur 29 Sudeste 0 888.6 0.2 78
2020-03-19 21:00:00 8.9 10 Sur 33 Sur 0 888.3 -0.2 73
2020-03-19 20:00:00 9.3 7 Sudeste 36 Sudeste 0 888.4 -0.4 71
2020-03-19 19:00:00 9.7 13 Sur 25 Sur 0 888.4 -0.8 69
2020-03-19 18:00:00 10.6 8 Sur 24 Sudeste 0 888.5 -1.4 63
2020-03-19 17:00:00 11 13 Sudeste 24 Sudeste 0 888.8 -1.9 62
2020-03-19 16:00:00 11.2 9 Sudeste 21 Sudeste 0 889.2 -2.2 65
2020-03-19 15:00:00 9.8 11 Sudeste 22 Sudeste 0 889.9 -2 67
2020-03-19 14:00:00 9.8 10 Sudeste 23 Sur 0 890.7 -1.4 65
2020-03-19 13:00:00 10.4 10 Sudeste 23 Sur 0 891.4 -0.7 58
2020-03-19 12:00:00 10.3 12 Sur 25 Sur 0 891.9 -0.1 60
2020-03-19 11:00:00 10.5 11 Sur 28 Sudeste 0 892.1 0.1 55
2020-03-19 10:00:00 8.8 9 Sur 21 Sur 0 892.1 0 54
2020-03-19 09:00:00 7.4 9 Sur 23 Sur 0 892 -0.2 55
2020-03-19 08:00:00 6.7 10 Sur 28 Sudeste 0 892 0 67
2020-03-19 07:00:00 7.1 10 Sudeste 26 Sudeste 0 892.1 0 70
2020-03-19 06:00:00 7.3 11 Sur 27 Sur 0 892.2 -0.5 75
2020-03-19 05:00:00 8.1 13 Sudeste 30 Sudeste 0 892 -1.4 80
2020-03-19 04:00:00 8.2 13 Sudeste 27 Sudeste 0 892.1 -1.6 82
2020-03-19 03:00:00 9.1 7 Sur 23 Sudeste 0 892.7 -1.5 79
2020-03-19 02:00:00 9.5 10 Sudeste 26 Sudeste 0 893.4 -1.1 77
2020-03-19 01:00:00 9.8 11 Sudeste 21 Sudeste 0 893.7 -1 74
2020-03-19 00:00:00 9.5 7 Este 14 Sudeste 0 894.2 -0.4 74
2020-03-18 23:00:00 9.3 3 Este 10 Sur 0 894.5 -0.1 74
2020-03-18 22:00:00 10.2 5 Sur 10 Sudeste 0 894.7 0.2 72
2020-03-18 21:00:00 10.4 3 Sudeste 8 Sudeste 0 894.6 0.2 72
2020-03-18 20:00:00 11.2 4 Sudeste 9 Sur 0 894.6 0.2 69
2020-03-18 19:00:00 12.3 2 Sur 15 Este 0 894.5 -0.1 66
2020-03-18 18:00:00 13.2 9 Sudeste 19 Sudeste 0 894.4 -0.4 62
2020-03-18 17:00:00 14 13 Sudeste 23 Sudeste 0 894.4 -0.9 60
2020-03-18 16:00:00 14.6 15 Sudeste 24 Sudeste 0 894.6 -1.2 58
2020-03-18 15:00:00 14.5 13 Sudeste 34 Sudeste 0 894.8 -1.4 57
2020-03-18 14:00:00 14.1 17 Sudeste 36 Sudeste 0 895.3 -1.2 53
2020-03-18 13:00:00 13.2 14 Sudeste 33 Este 0 895.8 -0.6 60
2020-03-18 12:00:00 12.5 8 Este 24 Sudeste 0 896.2 -0.1 62
2020-03-18 11:00:00 10.4 12 Este 27 Sudeste 0 896.5 0.3 72
2020-03-18 10:00:00 9.8 13 Sudeste 24 Este 0 896.4 0.1 71
2020-03-18 09:00:00 8.7 14 Sudeste 32 Sudeste 0 896.3 -0.2 75
2020-03-18 08:00:00 8.2 15 Sudeste 32 Sudeste 0 896.2 0.1 76
2020-03-18 07:00:00 6.6 9 Este 17 Sudeste 0 896.3 0.1 85
2020-03-18 06:00:00 6.5 8 Sudeste 14 Sudeste 0 896.5 0.3 86
2020-03-18 05:00:00 5.3 3 Este 6 Nordeste 0 896.1 -0.4 86
2020-03-18 04:00:00 6.9 4 Norte 15 Este 0 896.2 -0.8 80
2020-03-18 03:00:00 7.7 9 Sudeste 23 Este 0 896.2 -1.2 80
2020-03-18 02:00:00 7.5 6 Sudeste 10 Este 0 896.5 -0.8 86
2020-03-18 01:00:00 8.4 5 Norte 12 Nordeste 0 897 -0.2 86
2020-03-18 00:00:00 8.6 6 Nordeste 23 Este 0 897.4 0.8 85
2020-03-17 23:00:00 8.7 12 Este 23 Este 0 897.3 1.7 85
2020-03-17 22:00:00 8.8 11 Este 26 Sudeste 0 897.2 2.1 80
2020-03-17 21:00:00 9.2 7 Este 26 Este 0 896.6 2 78
2020-03-17 20:00:00 10 13 Sudeste 30 Sudeste 0 895.6 1.2 76
2020-03-17 19:00:00 11.1 17 Este 30 Sudeste 0 895.1 1 71
2020-03-17 18:00:00 11.9 11 Sudeste 26 Sudeste 0 894.6 0.7 70
2020-03-17 17:00:00 11.4 8 Sudeste 33 Sudeste 0 894.4 0.3 68
2020-03-17 16:00:00 12.5 13 Sudeste 42 Sudeste 0 894.1 -0.1 66
2020-03-17 15:00:00 11.7 18 Este 35 Este 0 893.9 -0.3 68
2020-03-17 14:00:00 8.6 15 Este 32 Este 0 894.1 0.1 78
2020-03-17 13:00:00 6.9 17 Este 27 Este 0 894.2 0.7 84
2020-03-17 12:00:00 4.6 0 Calma 15 Sudeste 0 894.2 1.1 91
2020-03-17 11:00:00 4.1 9 Este 24 Sudeste 0 894 1.8 92
2020-03-17 10:00:00 3.9 13 Sudeste 29 Este 0 893.5 2 89
2020-03-17 09:00:00 3.3 9 Este 17 Sudeste 0.2 893.1 2.2 92
2020-03-17 08:00:00 3.3 9 Este 24 Este 0 892.2 2.4 88
2020-03-17 07:00:00 1 3 Noroeste 7 Este 0 891.5 1.6 95
2020-03-17 06:00:00 0.9 3 Norte 5 Norte 0 890.9 1 96
2020-03-17 05:00:00 0.7 0 Calma 5 Sudeste 0 889.8 0 94
2020-03-17 04:00:00 0.9 0 Calma 10 Este 0 889.9 0.9 93
2020-03-17 03:00:00 1.3 6 Este 12 Este 0 889.9 1.1 91
2020-03-17 02:00:00 1.6 8 Este 17 Este 0 889.8 1.3 91
2020-03-17 01:00:00 1.5 10 Este 15 Este 0 889 1.3 87
2020-03-17 00:00:00 1.1 7 Nordeste 13 Nordeste 0 888.8 1.9 94
2020-03-16 23:00:00 0.9 3 Este 11 Este 0.2 888.5 2.2 94
2020-03-16 22:00:00 0.8 6 Este 18 Este 0.2 887.7 2 95
2020-03-16 21:00:00 0.7 9 Este 19 Este 1.6 886.9 2.1 97
2020-03-16 20:00:00 0.8 11 Nordeste 19 Nordeste 0.8 886.3 2 96
2020-03-16 19:00:00 1.5 11 Este 28 Nordeste 0.4 885.7 2.1 96
2020-03-16 18:00:00 1.9 15 Nordeste 25 Nordeste 0.2 884.8 1.2 94
2020-03-16 17:00:00 1.6 10 Nordeste 29 Nordeste 1.6 884.3 0.5 93
2020-03-16 16:00:00 1.7 17 Nordeste 31 Norte 1.2 883.6 -0.2 97
2020-03-16 15:00:00 0.3 14 Norte 25 Norte 3 883.6 -0.1 97
2020-03-16 14:00:00 -0.1 15 Norte 30 Norte 2.2 883.8 0.8 98
2020-03-16 13:00:00 -0.3 20 Norte 33 Norte 1.2 883.8 1.8 98
2020-03-16 12:00:00 0 20 Norte 30 Norte 1.6 883.7 2 99
2020-03-16 11:00:00 -0.3 18 Norte 37 Norte 1.2 883 1.6 98
2020-03-16 10:00:00 -0.2 20 Norte 35 Norte 0.8 882 0.5 98
2020-03-16 09:00:00 -0.6 19 Noroeste 37 Noroeste 0.6 881.7 0.3 97
2020-03-16 08:00:00 -0.7 21 Noroeste 32 Oeste 0.2 881.4 -0.1 97
2020-03-16 07:00:00 -0.8 18 Noroeste 36 Noroeste 0.6 881.5 -0.3 97
2020-03-16 06:00:00 -0.3 17 Noroeste 32 Noroeste 0.2 881.4 -0.9 96
2020-03-16 05:00:00 -0.1 17 Noroeste 26 Noroeste 0 881.5 -1.2 95
2020-03-16 04:00:00 0.2 12 Noroeste 24 Noroeste 0 881.8 -1.4 94
2020-03-16 03:00:00 0.5 13 Noroeste 27 Noroeste 0 882.3 -1.6 91
2020-03-16 02:00:00 0.9 16 Noroeste 28 Noroeste 0 882.7 -1 93
2020-03-16 01:00:00 2.9 17 Noroeste 30 Oeste 0 883.2 0.2 84
2020-03-16 00:00:00 3.5 15 Noroeste 38 Oeste 0 883.9 1.1 80
2020-03-15 23:00:00 5 21 Noroeste 39 Noroeste 0 883.7 0.8 82
2020-03-15 22:00:00 8.5 6 Noroeste 17 Noroeste 0 883 1.1 75
2020-03-15 21:00:00 8.8 13 Noroeste 19 Noroeste 0 882.8 0.3 75
2020-03-15 20:00:00 9.7 12 Norte 35 Noroeste 0 882.9 0 73
2020-03-15 19:00:00 13.3 15 Oeste 44 Sudoeste 0 881.9 -1.4 42
2020-03-15 18:00:00 14.5 13 Sudoeste 38 Oeste 0 882.5 -1.2 48
2020-03-15 17:00:00 17.1 15 Oeste 32 Sudoeste 0 882.9 -1.7 39
2020-03-15 16:00:00 17.2 18 Sur 42 Sur 0 883.3 -2.4 42
2020-03-15 15:00:00 17.7 21 Sudoeste 42 Sudoeste 0 883.7 -2.7 41
2020-03-15 14:00:00 18.5 19 Sur 42 Sur 0 884.6 -2.5 40
2020-03-15 13:00:00 17.3 22 Sur 38 Sur 0 885.7 -1.7 44
2020-03-15 12:00:00 16.8 20 Sur 32 Sur 0 886.4 -1 44
2020-03-15 11:00:00 15.5 6 Sudoeste 16 Sur 0 887.1 -0.4 48
2020-03-15 10:00:00 13.3 7 Sudeste 16 Sudeste 0 887.4 -0.3 51
2020-03-15 09:00:00 9.8 8 Sudeste 15 Sudeste 0 887.4 -0.5 58
2020-03-15 08:00:00 4.4 6 Sudeste 8 Sudeste 0 887.5 -0.6 72
2020-03-15 07:00:00 3.9 4 Sudoeste 8 Sudoeste 0 887.7 -0.9 70
2020-03-15 06:00:00 3.9 3 Sudeste 10 Sur 0 887.9 -1.5 68
2020-03-15 05:00:00 3.7 4 Sur 7 Sur 0 888.1 -1.6 69
2020-03-15 04:00:00 3.8 0 Calma 5 Sur 0 888.6 -1.6 66
2020-03-15 03:00:00 4.7 3 Sur 5 Sur 0 889.4 -1.2 62
2020-03-15 02:00:00 5.2 5 Sur 8 Sudeste 0 889.7 -1.2 61
2020-03-15 01:00:00 5.7 6 Sur 11 Sur 0 890.2 -0.9 60
2020-03-15 00:00:00 6.7 0 Calma 6 Sur 0 890.6 -0.4 56
2020-03-14 23:00:00 7.4 2 Este 6 Sur 0 890.9 0.2 53
2020-03-14 22:00:00 8.9 4 Sur 6 Sur 0 891.1 0.6 48
2020-03-14 21:00:00 11.3 5 Nordeste 12 Nordeste 0 891 0.7 40
2020-03-14 20:00:00 13 8 Norte 14 Nordeste 0 890.7 0.4 36
2020-03-14 19:00:00 15.4 10 Norte 19 Norte 0 890.5 -0.1 31
2020-03-14 18:00:00 16.7 10 Nordeste 19 Noroeste 0 890.3 -0.8 27
2020-03-14 17:00:00 17.2 10 Norte 21 Norte 0 890.3 -1.5 28
2020-03-14 16:00:00 17.2 10 Norte 19 Noroeste 0 890.6 -1.6 32
2020-03-14 15:00:00 16.9 11 Noroeste 20 Noroeste 0 891.1 -1.4 31
2020-03-14 14:00:00 15.2 12 Norte 22 Norte 0 891.8 -1 38
2020-03-14 13:00:00 15.1 12 Noroeste 19 Noroeste 0 892.2 -0.6 41
2020-03-14 12:00:00 14.2 4 Sudoeste 8 Sudoeste 0 892.5 0 33
2020-03-14 11:00:00 11.5 3 Sudoeste 9 Sur 0 892.8 0.6 47
2020-03-14 10:00:00 8.5 3 Sur 8 Sur 0 892.8 0.7 77
2020-03-14 09:00:00 5.7 4 Sur 8 Sur 0 892.5 0.7 86
2020-03-14 08:00:00 2.6 3 Sur 7 Sur 0 892.2 0.7 93
2020-03-14 07:00:00 2.7 2 Sur 9 Sur 0 892.1 0.4 91
2020-03-14 06:00:00 4 3 Sudeste 8 Oeste 0 891.8 -0.1 93
2020-03-14 05:00:00 4.4 2 Oeste 10 Sudoeste 0 891.5 -0.7 93
2020-03-14 04:00:00 5.1 6 Sur 10 Sur 0 891.7 -0.8 94
2020-03-14 03:00:00 5.6 0 Calma 9 Sudoeste 0 891.9 -0.3 91
2020-03-14 02:00:00 6.1 3 Sudoeste 6 Oeste 0 892.2 0.4 89
2020-03-14 01:00:00 7.2 5 Norte 15 Norte 0 892.5 1.2 88
2020-03-14 00:00:00 7.3 6 Norte 13 Norte 0 892.2 1.1 87
2020-03-13 23:00:00 7.9 11 Norte 17 Norte 0 891.8 1.1 85
2020-03-13 22:00:00 9.2 10 Norte 15 Norte 0 891.3 1.1 81
2020-03-13 21:00:00 10.9 10 Norte 26 Norte 0 891.1 1.2 76
2020-03-13 20:00:00 12.4 10 Noroeste 19 Noroeste 0 890.7 1 71
2020-03-13 19:00:00 13.2 10 Noroeste 20 Norte 0 890.2 0.5 70
2020-03-13 18:00:00 14 13 Noroeste 26 Noroeste 0 889.9 0 64
2020-03-13 17:00:00 14.4 13 Norte 24 Norte 0 889.7 -0.6 65
2020-03-13 16:00:00 14 14 Noroeste 27 Noroeste 0 889.7 -0.9 66
2020-03-13 15:00:00 13 15 Noroeste 27 Noroeste 0 889.9 -0.9 70
2020-03-13 14:00:00 11.2 13 Norte 26 Norte 0 890.3 -0.6 76
2020-03-13 13:00:00 11.6 11 Norte 17 Norte 0 890.6 -0.4 77
2020-03-13 12:00:00 9.2 3 Sur 8 Oeste 0 890.8 0 88
2020-03-13 11:00:00 7.2 3 Norte 7 Sudoeste 0 890.9 0.5 99
2020-03-13 10:00:00 6.2 3 Este 10 Norte 0 891 0.9 99
2020-03-13 09:00:00 5.9 6 Norte 12 Nordeste 0 890.8 1 99
2020-03-13 08:00:00 6 7 Norte 15 Norte 0 890.4 0.6 99
2020-03-13 07:00:00 5.8 4 Nordeste 8 Nordeste 0 890.1 0.1 98
2020-03-13 06:00:00 6.4 2 Oeste 6 Noroeste 0 889.8 -0.3 94
2020-03-13 05:00:00 7.1 4 Noroeste 13 Norte 0 889.8 -0.8 93
2020-03-13 04:00:00 7.8 8 Norte 19 Nordeste 0 890 -0.9 91
2020-03-13 03:00:00 10.2 4 Oeste 9 Este 0 890.1 -1.1 77
2020-03-13 02:00:00 10.2 5 Nordeste 13 Norte 0 890.6 -0.6 77
2020-03-13 01:00:00 10.6 3 Noroeste 11 Sur 0 890.9 -0.2 74
2020-03-13 00:00:00 11.3 6 Sur 9 Sudoeste 0 891.2 0.1 73
2020-03-12 23:00:00 12.2 3 Sudoeste 6 Sur 0 891.2 0.6 69
2020-03-12 22:00:00 13.6 0 Calma 7 Oeste 0 891.1 0.9 63
2020-03-12 21:00:00 15.3 4 Oeste 14 Norte 0 891.1 1.2 57
2020-03-12 20:00:00 16.2 14 Noroeste 22 Noroeste 0 890.6 0.7 56
2020-03-12 19:00:00 18.6 14 Norte 26 Noroeste 0 890.2 0.1 50
2020-03-12 18:00:00 21 12 Noroeste 23 Noroeste 0 889.9 -0.8 35
2020-03-12 17:00:00 21.5 14 Sur 28 Sur 0 889.9 -1.6 30
2020-03-12 16:00:00 22.5 14 Sur 34 Sudoeste 0 890.1 -2.3 30
2020-03-12 15:00:00 21.2 13 Sur 28 Sur 0 890.7 -2.2 31
2020-03-12 14:00:00 22.1 13 Sudeste 25 Sudeste 0 891.5 -- 31
2020-03-12 13:00:00 21.6 9 Oeste 20 Sur 0 892.4 -- 29
2020-03-12 12:00:00 20.3 9 Sudeste 19 Sudeste 0 892.9 0 38
2020-03-12 11:00:00 18.3 3 Norte 10 Oeste 0 -- -- 49
2020-03-12 10:00:00 16 5 Sur 27 Sudeste 0 -- -- 56
2020-03-12 09:00:00 14.1 9 Sudeste 20 Sudeste 0 892.9 0.2 59
2020-03-12 08:00:00 12.8 7 Sudeste 18 Sudeste 0 892.6 -0.2 63
2020-03-12 07:00:00 11.8 8 Sudeste 17 Sudeste 0 892.5 -- 65
2020-03-12 06:00:00 12.2 4 Sur 18 Sudeste 0 892.7 -1 62
2020-03-12 05:00:00 12.1 11 Sudeste 20 Sudeste 0 892.8 -1.4 62
2020-03-12 04:00:00 12.4 8 Sudeste 18 Sudeste 0 -- -- 59
2020-03-12 03:00:00 12 10 Sudeste 14 Sudeste 0 893.7 -1.6 59
2020-03-12 02:00:00 10.2 6 Sur 13 Sur 0 894.2 -1.1 71
2020-03-12 01:00:00 10.8 3 Sudeste 10 Sudeste 0 894.7 -- 66
2020-03-12 00:00:00 12.6 3 Sudeste 10 Sur 0 895.3 -- 59
2020-03-11 23:00:00 13.2 7 Sudeste 12 Sudeste 0 895.3 -- 58
2020-03-11 22:00:00 14.2 4 Este 5 Este 0 -- -- 54
2020-03-11 21:00:00 16.7 0 Calma 12 Norte 0 -- -- 45
2020-03-11 20:00:00 18.7 5 Norte 10 Norte 0 -- -- 40
2020-03-11 19:00:00 20.3 4 Norte 13 Noroeste 0 895.2 0.3 40
2020-03-11 18:00:00 21.2 8 Norte 17 Norte 0 894.8 -0.4 37
2020-03-11 17:00:00 22.1 11 Norte 25 Noroeste 0 894.8 -1 34
2020-03-11 16:00:00 23.3 11 Norte 19 Norte 0 894.9 -1.4 31
2020-03-11 15:00:00 23.5 7 Noroeste 21 Norte 0 895.2 -1.5 33
2020-03-11 14:00:00 22.2 10 Nordeste 24 Nordeste 0 895.8 -- 35
2020-03-11 13:00:00 22.4 6 Noroeste 18 Noroeste 0 896.3 -0.7 33
2020-03-11 12:00:00 -- -- -- -- -- -- -- -- --
2020-03-11 11:00:00 -- -- -- -- -- -- -- -- --
2020-03-11 10:00:00 -- -- -- -- -- -- -- -- --
2020-03-11 09:00:00 -- -- -- -- -- -- -- -- --
2020-03-11 08:00:00 -- -- -- -- -- -- -- -- --
2020-03-11 07:00:00 -- -- -- -- -- -- -- -- --
2020-03-11 06:00:00 -- -- -- -- -- -- -- -- --
2020-03-11 05:00:00 -- -- -- -- -- -- -- -- --
2020-03-11 04:00:00 -- -- -- -- -- -- -- -- --
2020-03-11 03:00:00 -- -- -- -- -- -- -- -- --
2020-03-11 02:00:00 -- -- -- -- -- -- -- -- --
2020-03-11 01:00:00 -- -- -- -- -- -- -- -- --
2020-03-11 00:00:00 -- -- -- -- -- -- -- -- --
2020-03-10 23:00:00 -- -- -- -- -- -- -- -- --
2020-03-10 22:00:00 -- -- -- -- -- -- -- -- --
2020-03-10 21:00:00 -- -- -- -- -- -- -- -- --
2020-03-10 20:00:00 -- -- -- -- -- -- -- -- --
2020-03-10 19:00:00 -- -- -- -- -- -- -- -- --
2020-03-10 18:00:00 -- -- -- -- -- -- -- -- --
2020-03-10 17:00:00 -- -- -- -- -- -- -- -- --
2020-03-10 16:00:00 -- -- -- -- -- -- -- -- --
2020-03-10 15:00:00 -- -- -- -- -- -- -- -- --
2020-03-10 14:00:00 -- -- -- -- -- -- -- -- --
2020-03-10 13:00:00 -- -- -- -- -- -- -- -- --
2020-03-10 12:00:00 -- -- -- -- -- -- -- -- --
2020-03-10 11:00:00 11.3 3 Sur 9 Sudeste 0 899.1 0.7 51
2020-03-10 10:00:00 7.6 6 Sudeste 9 Sudeste 0 898.8 0.4 64
2020-03-10 09:00:00 4.3 2 Sudeste 8 Sudeste 0 898.5 0.5 74
2020-03-10 08:00:00 3.1 3 Sur 8 Sur 0 898.4 0.7 77
2020-03-10 07:00:00 3.4 3 Este 4 Este 0 898.4 0.8 76
2020-03-10 06:00:00 3.4 3 Este 5 Este 0 898 0 75
2020-03-10 05:00:00 3.6 2 Sudeste 6 Sudeste 0 897.7 -0.4 74
2020-03-10 04:00:00 3.7 2 Sudeste 5 Este 0 897.6 -1.2 73
2020-03-10 03:00:00 3.7 3 Sur 9 Sur 0 898 -0.8 72
2020-03-10 02:00:00 3.8 3 Sudeste 6 Sudeste 0 898.1 -0.8 72
2020-03-10 01:00:00 4.1 3 Sudeste 9 Sur 0 898.8 0.5 70
2020-03-10 00:00:00 4.3 2 Sudoeste 5 Sudoeste 0 898.8 0.9 68
2020-03-09 23:00:00 5.1 3 Sur 6 Sur 0 898.9 1.2 64
2020-03-09 22:00:00 6.1 2 Noroeste -- -- 0 898.3 -- 58
2020-03-09 21:00:00 7.4 6 Noroeste 13 Norte 0 897.9 -- 52
2020-03-09 20:00:00 8.7 7 Noroeste -- -- -- 897.7 -- 46
2020-03-09 19:00:00 -- -- -- -- -- -- -- -- --
2020-03-09 18:00:00 -- -- -- -- -- -- -- -- --
2020-03-09 17:00:00 -- -- -- -- -- -- -- -- --
2020-03-09 16:00:00 12.6 17 Noroeste 40 Noroeste 0 896.9 -1.2 37
2020-03-09 15:00:00 12.2 20 Noroeste 32 Oeste 0 897.3 -1.4 41
2020-03-09 14:00:00 11.2 17 Noroeste 29 Noroeste 0 897.9 -0.8 42
2020-03-09 13:00:00 10.1 13 Noroeste 24 Noroeste 0 898.1 0 52
2020-03-09 12:00:00 8.5 17 Norte 26 Noroeste 0 898.7 0.8 58
2020-03-09 11:00:00 6.7 17 Noroeste 29 Noroeste 0 898.7 1.6 70
2020-03-09 10:00:00 4.9 17 Oeste 27 Noroeste 0 898.1 1.6 80
2020-03-09 09:00:00 2.8 11 Noroeste 20 Noroeste 0 897.9 1.3 91
2020-03-09 08:00:00 2.6 10 Noroeste 19 Noroeste 0 897.1 0.3 90
2020-03-09 07:00:00 2.7 11 Noroeste 19 Noroeste 0 896.5 -0.4 91
2020-03-09 06:00:00 3.3 12 Noroeste 26 Noroeste 0 896.6 -0.4 87
2020-03-09 05:00:00 4.2 17 Noroeste 26 Noroeste 0 896.8 -0.8 89
2020-03-09 04:00:00 4.7 13 Noroeste 24 Noroeste 0 896.9 -0.3 88
2020-03-09 03:00:00 5.3 16 Noroeste 34 Noroeste 0 897 -0.1 88
2020-03-09 02:00:00 6 19 Noroeste 26 Noroeste 0 897.6 0.5 87
2020-03-09 01:00:00 6.2 12 Oeste 19 Oeste 0 897.2 0.2 85
2020-03-09 00:00:00 6.2 8 Noroeste 22 Oeste 0 897.1 0.4 82